Augusta, Illinois
Current Conditions -  °F | °C
As of 8:54 PM on Friday 26 Dec 2014 (Local Time) from KUIN Reporting Station
Overcast Overcast  
Wind Chill: 11°   Ceiling: 3600
Heat Index: 11°   Visibility: 10mi
Dew Point:   Wind: 13mph
Humidity: 74%   Direction: 180°S
Pressure: 29.96"   Gusts: NA
Location:  40.23°N, 90.95°W
Report Text: KUIN 270254Z AUTO 18011KT 10SM OVC036 11/07 A2996 RMK AO2 SLP146 T01110067 51003
Loading
Personal Weather Stations






























Interactive Weather Map New forecast layout! Learn more

10-Day Weather Forecast

Advertisements
Track Severe Weather on mobile